Time;durP1;ratioP1;P1;durP2;ratioP2;P2;SDS_P1;SDS_P2;PMS_P1;PMS_P2;Temp;Humidity;BMP_temperature;BMP_pressure;BME280_temperature;BME280_humidity;BME280_pressure;Samples;Min_cycle;Max_cycle;Signal;HPM_P1;HPM_P2
2023/02/05 00:02:37;;;;;;;34.63;23.20;;;;;;;-0.38;81.51;100195.59;1711559;84;21224;-85
2023/02/05 00:05:43;;;;;;;37.60;23.25;;;;;;;-0.49;82.09;100188.30;1714925;83;21733;-81
2023/02/05 00:08:48;;;;;;;32.70;22.35;;;;;;;-0.54;82.17;100187.77;1696920;84;21213;-80
2023/02/05 00:11:54;;;;;;;35.15;21.68;;;;;;;-0.55;82.53;100195.47;1712214;82;21193;-80
2023/02/05 00:14:58;;;;;;;37.83;24.35;;;;;;;-0.53;82.60;100189.48;1715606;83;21165;-80
2023/02/05 00:18:05;;;;;;;33.10;21.50;;;;;;;-0.49;82.80;100191.48;1695855;84;21201;-80
2023/02/05 00:21:13;;;;;;;40.50;24.92;;;;;;;-0.39;82.72;100194.73;1696106;84;21209;-85
2023/02/05 00:24:18;;;;;;;45.08;26.33;;;;;;;-0.37;82.71;100186.09;1712544;84;21727;-85
2023/02/05 00:27:24;;;;;;;40.65;23.65;;;;;;;-0.31;82.89;100182.11;1715195;83;21191;-84
2023/02/05 00:30:30;;;;;;;37.05;23.95;;;;;;;-0.39;83.18;100190.70;1697018;84;21225;-85
2023/02/05 00:33:37;;;;;;;37.45;24.57;;;;;;;-0.37;83.39;100192.82;1711302;84;21746;-81
2023/02/05 00:36:42;;;;;;;45.95;25.37;;;;;;;-0.35;83.58;100185.98;1683081;85;21185;-85
2023/02/05 00:39:49;;;;;;;39.63;24.37;;;;;;;-0.32;83.41;100185.28;1713347;83;21216;-86
2023/02/05 00:42:57;;;;;;;37.67;22.73;;;;;;;-0.36;83.53;100188.30;1716462;83;21240;-86
2023/02/05 00:45:56;;;;;;;38.13;24.35;;;;;;;-0.39;83.69;100193.39;1728595;83;21205;-81
2023/02/05 00:49:02;;;;;;;36.80;23.98;;;;;;;-0.43;84.03;100196.41;1728560;83;21170;-81
2023/02/05 00:52:09;;;;;;;48.50;30.37;;;;;;;-0.38;83.99;100192.42;1727158;83;21217;-84
2023/02/05 00:55:15;;;;;;;35.03;23.73;;;;;;;-0.43;84.09;100193.23;1728328;83;21189;-84
2023/02/05 00:58:14;;;;;;;31.40;19.00;;;;;;;-0.44;84.54;100196.89;1741527;80;21647;-84
2023/02/05 01:01:19;;;;;;;41.35;25.17;;;;;;;-0.34;84.47;100200.64;1686120;85;21224;-84
2023/02/05 01:04:24;;;;;;;42.35;25.68;;;;;;;-0.14;84.10;100199.23;1685065;85;21179;-80
2023/02/05 01:07:30;;;;;;;42.65;23.47;;;;;;;0.02;83.82;100198.11;1713584;83;21183;-84
2023/02/05 01:10:37;;;;;;;39.50;24.60;;;;;;;0.05;83.58;100209.52;1715159;80;21152;-84
2023/02/05 01:13:44;;;;;;;38.30;23.62;;;;;;;0.06;83.66;100200.95;1722074;82;21177;-81
2023/02/05 01:16:50;;;;;;;36.10;23.25;;;;;;;0.24;83.37;100207.19;1745633;82;21224;-84
2023/02/05 01:19:56;;;;;;;41.65;25.75;;;;;;;0.36;82.99;100208.59;1745721;82;21165;-82
2023/02/05 01:23:01;;;;;;;42.60;25.72;;;;;;;0.36;82.96;100205.90;1744753;82;21236;-84
2023/02/05 01:26:07;;;;;;;45.17;25.30;;;;;;;0.57;82.20;100208.34;1745839;80;21734;-84
2023/02/05 01:29:13;;;;;;;44.58;24.65;;;;;;;0.50;82.21;100208.42;1745607;82;21165;-79
2023/02/05 01:32:19;;;;;;;46.80;27.30;;;;;;;0.36;82.51;100205.90;1745191;82;21222;-79
2023/02/05 01:35:25;;;;;;;46.63;27.25;;;;;;;0.38;82.66;100202.14;1745720;82;21162;-79
2023/02/05 01:38:31;;;;;;;43.95;26.55;;;;;;;0.29;82.88;100210.03;1744489;82;21784;-85
2023/02/05 01:41:40;;;;;;;51.98;27.98;;;;;;;0.23;83.21;100206.80;1737597;81;21758;-79
2023/02/05 01:44:46;;;;;;;47.67;29.87;;;;;;;0.28;83.39;100209.63;1736360;82;21734;-82
2023/02/05 01:47:53;;;;;;;50.63;27.87;;;;;;;0.26;83.47;100219.17;1736694;82;21197;-80
2023/02/05 01:51:02;;;;;;;43.73;26.52;;;;;;;0.45;83.15;100220.02;1737574;82;21162;-84
2023/02/05 01:53:54;;;;;;;50.35;29.55;;;;;;;0.55;83.05;100222.39;1772214;81;21661;-81
2023/02/05 01:57:03;;;;;;;51.33;27.40;;;;;;;0.54;83.28;100223.37;1737140;82;21230;-79
2023/02/05 02:00:10;;;;;;;46.42;27.30;;;;;;;0.54;83.00;100220.68;1772079;81;21201;-84
2023/02/05 02:03:18;;;;;;;42.98;28.12;;;;;;;0.53;83.39;100220.31;1770812;81;21248;-79
2023/02/05 02:06:25;;;;;;;46.83;28.00;;;;;;;0.69;82.76;100220.87;1772004;81;21161;-80
2023/02/05 02:09:31;;;;;;;41.75;25.05;;;;;;;0.75;82.44;100212.81;1770675;81;21169;-81
2023/02/05 02:12:40;;;;;;;39.03;23.92;;;;;;;0.62;82.68;100218.28;1770512;81;21224;-85
2023/02/05 02:15:46;;;;;;;55.60;29.18;;;;;;;0.41;83.06;100217.18;1772021;81;21200;-79
2023/02/05 02:18:52;;;;;;;47.13;30.08;;;;;;;0.33;82.99;100211.50;1772135;81;21178;-85
2023/02/05 02:22:27;;;;;;;55.73;30.88;;;;;;;0.23;83.59;100207.28;1737361;82;21775;-86
2023/02/05 02:26:11;;;;;;;55.60;29.75;;;;;;;0.16;84.08;100209.58;1772140;81;21161;-79
2023/02/05 02:29:22;;;;;;;59.33;32.30;;;;;;;0.29;84.58;100210.89;1737722;82;21237;-79
2023/02/05 02:32:44;;;;;;;56.80;30.72;;;;;;;0.36;84.83;100214.83;1771543;81;21200;-85
2023/02/05 02:35:52;;;;;;;;;;;;;;;0.47;84.82;100224.78;1773387;81;21205;-79
2023/02/05 02:39:10;;;;;;;53.92;30.92;;;;;;;0.57;84.40;100224.98;1770867;81;20195;-80
2023/02/05 02:42:30;;;;;;;41.20;24.37;;;;;;;0.58;84.13;100226.70;1743466;82;21188;-80
2023/02/05 02:45:37;;;;;;;48.68;26.00;;;;;;;0.41;84.86;100226.59;1717652;83;21177;-79
2023/02/05 02:48:43;;;;;;;48.33;27.48;;;;;;;0.50;84.56;100228.61;1748719;82;21184;-85
2023/02/05 02:51:49;;;;;;;46.48;27.95;;;;;;;0.75;83.98;100226.27;1748435;82;21192;-78
2023/02/05 02:54:55;;;;;;;46.98;28.15;;;;;;;0.70;84.24;100221.23;1748843;82;21197;-84
2023/02/05 02:58:02;;;;;;;41.45;26.80;;;;;;;0.65;84.17;100226.11;1747681;82;21185;-79
2023/02/05 03:01:08;;;;;;;43.48;28.23;;;;;;;0.55;84.55;100225.08;1748873;82;21185;-79
2023/02/05 03:04:22;;;;;;;45.23;28.98;;;;;;;0.50;84.83;100224.57;1748525;82;21161;-80
2023/02/05 03:07:37;;;;;;;44.63;25.55;;;;;;;0.50;84.93;100217.84;1748201;82;21216;-80
2023/02/05 03:10:50;;;;;;;46.98;26.35;;;;;;;0.43;85.06;100217.94;1748651;82;21177;-79
2023/02/05 03:13:56;;;;;;;50.98;27.07;;;;;;;0.37;85.11;100219.72;1748857;82;21185;-80
2023/02/05 03:17:02;;;;;;;51.40;30.37;;;;;;;0.31;85.25;100220.19;1747296;82;21200;-79
2023/02/05 03:20:17;;;;;;;43.98;27.87;;;;;;;0.25;85.52;100214.28;1727598;82;21172;-82
2023/02/05 03:23:23;;;;;;;54.33;30.88;;;;;;;0.22;85.74;100217.19;1743695;82;21157;-79
2023/02/05 03:26:34;;;;;;;48.85;30.50;;;;;;;0.23;85.90;100221.59;1748729;82;21177;-79
2023/02/05 03:29:45;;;;;;;43.85;28.32;;;;;;;0.24;86.06;100222.48;1748741;82;21161;-84
2023/02/05 03:33:32;;;;;;;50.52;30.25;;;;;;;0.24;86.20;100219.78;1747841;82;21212;-80
2023/02/05 03:37:08;;;;;;;46.70;28.35;;;;;;;0.19;86.08;100230.88;1748655;82;21260;-80
2023/02/05 03:40:31;;;;;;;47.15;28.52;;;;;;;0.14;86.15;100232.16;1748688;82;21204;-80
2023/02/05 03:44:02;;;;;;;55.35;32.75;;;;;;;0.15;86.26;100232.56;1686713;84;21253;-80
2023/02/05 03:47:16;;;;;;;46.30;28.35;;;;;;;0.30;85.86;100228.74;1740434;82;21140;-80
2023/02/05 03:50:32;;;;;;;42.05;25.48;;;;;;;0.11;86.38;100238.64;1740857;82;21139;-85
2023/02/05 03:53:41;;;;;;;44.05;28.05;;;;;;;0.23;86.66;100238.22;1739658;82;21626;-84
2023/02/05 03:56:44;;;;;;;46.00;29.07;;;;;;;0.23;86.29;100236.39;1739213;82;21216;-86
2023/02/05 03:59:50;;;;;;;47.75;28.95;;;;;;;0.28;86.63;100235.19;1740918;82;21168;-84
2023/02/05 04:02:59;;;;;;;59.42;32.65;;;;;;;0.28;86.74;100236.54;1739789;82;21686;-80
2023/02/05 04:06:06;;;;;;;56.28;32.48;;;;;;;0.21;87.17;100231.62;1739924;82;21132;-81
2023/02/05 04:09:12;;;;;;;58.83;33.92;;;;;;;0.39;87.02;100237.97;1740312;82;21156;-79
2023/02/05 04:12:20;;;;;;;55.73;31.23;;;;;;;0.53;86.77;100243.19;1740151;82;21172;-85
2023/02/05 04:15:26;;;;;;;53.87;30.12;;;;;;;0.52;86.97;100244.17;1738901;82;21745;-81
2023/02/05 04:18:33;;;;;;;62.38;32.83;;;;;;;0.54;87.04;100242.21;1738281;82;21214;-80
2023/02/05 04:21:39;;;;;;;54.83;31.27;;;;;;;0.49;87.35;100244.39;1739594;82;21206;-85
2023/02/05 04:24:45;;;;;;;51.00;29.77;;;;;;;0.53;87.70;100248.58;1739287;82;21209;-79
2023/02/05 04:27:52;;;;;;;53.60;31.97;;;;;;;0.62;87.25;100253.77;1738742;82;21254;-84
2023/02/05 04:30:59;;;;;;;52.70;30.23;;;;;;;0.65;87.39;100253.52;1735905;81;21154;-84
2023/02/05 04:34:06;;;;;;;48.15;30.65;;;;;;;0.82;86.90;100261.69;1733491;83;21170;-81
2023/02/05 04:37:13;;;;;;;51.88;31.27;;;;;;;0.73;86.70;100261.40;1705712;83;21217;-86
2023/02/05 04:40:19;;;;;;;53.95;30.48;;;;;;;0.65;87.07;100267.83;1732587;83;21189;-84
2023/02/05 04:43:25;;;;;;;47.95;29.65;;;;;;;0.68;87.43;100270.80;1732561;82;21197;-84
2023/02/05 04:46:31;;;;;;;54.55;31.12;;;;;;;0.68;87.15;100268.11;1732654;83;21189;-85
2023/02/05 04:49:39;;;;;;;62.53;32.38;;;;;;;0.69;87.10;100273.86;1733756;83;21707;-85
2023/02/05 04:52:46;;;;;;;51.18;30.95;;;;;;;0.63;87.13;100275.67;1711841;83;21767;-85
2023/02/05 04:55:53;;;;;;;54.88;32.10;;;;;;;0.67;87.21;100274.47;1732568;83;21225;-80
2023/02/05 04:58:59;;;;;;;51.10;30.55;;;;;;;0.69;87.25;100277.41;1733540;83;21240;-82
2023/02/05 05:02:06;;;;;;;50.40;28.40;;;;;;;0.58;87.82;100283.23;1732932;83;21218;-80
2023/02/05 05:05:13;;;;;;;51.18;26.90;;;;;;;0.52;88.49;100288.58;1733582;83;21735;-81
2023/02/05 05:08:21;;;;;;;51.55;30.23;;;;;;;0.61;88.51;100289.25;1732074;83;21217;-85
2023/02/05 05:11:27;;;;;;;55.60;28.65;;;;;;;0.63;88.55;100289.98;1732070;83;21651;-81
2023/02/05 05:14:32;;;;;;;59.83;30.97;;;;;;;0.80;88.25;100290.55;1733333;83;21166;-85
2023/02/05 05:17:38;;;;;;;54.95;32.17;;;;;;;0.88;87.85;100301.62;1732193;83;21189;-80
2023/02/05 05:20:45;;;;;;;52.30;30.27;;;;;;;0.81;87.75;100308.45;1733621;83;21169;-86
2023/02/05 05:23:51;;;;;;;49.80;29.27;;;;;;;0.84;88.21;100306.85;1733691;83;21244;-79
2023/02/05 05:26:57;;;;;;;56.95;30.70;;;;;;;0.90;88.43;100305.07;1733017;83;21217;-79
2023/02/05 05:30:03;;;;;;;56.55;30.80;;;;;;;0.85;88.71;100309.91;1733493;83;21186;-84
2023/02/05 05:33:09;;;;;;;51.83;29.05;;;;;;;0.74;89.26;100311.58;1719086;83;21227;-85
2023/02/05 05:36:15;;;;;;;49.93;29.23;;;;;;;0.90;89.32;100317.19;1719953;83;21210;-80
2023/02/05 05:46:08;;;;;;;54.85;31.07;;;;;;;0.99;88.71;100321.89;1723625;82;21215;-78
2023/02/05 05:49:14;;;;;;;53.05;29.15;;;;;;;0.96;88.76;100326.15;1738756;82;21173;-84
2023/02/05 05:52:20;;;;;;;51.28;26.68;;;;;;;0.94;88.88;100334.36;1738652;82;21201;-79
2023/02/05 05:55:26;;;;;;;48.50;25.30;;;;;;;0.92;88.51;100339.47;1738866;82;21260;-79
2023/02/05 05:58:33;;;;;;;41.40;22.48;;;;;;;0.85;88.32;100336.84;1737559;82;21849;-84
2023/02/05 06:01:37;;;;;;;40.28;21.87;;;;;;;0.94;87.97;100340.20;1750460;81;21220;-79
2023/02/05 06:04:44;;;;;;;37.95;23.12;;;;;;;0.80;87.47;100340.36;1756684;81;21212;-81
2023/02/05 06:07:51;;;;;;;35.43;20.57;;;;;;;0.72;87.25;100341.80;1755575;81;21769;-85
2023/02/05 06:10:58;;;;;;;43.35;21.97;;;;;;;0.91;86.40;100338.61;1756561;81;21765;-81
2023/02/05 06:14:05;;;;;;;47.55;24.67;;;;;;;0.79;86.36;100346.73;1756972;81;21825;-81
2023/02/05 06:17:10;;;;;;;45.73;22.42;;;;;;;0.65;86.95;100351.78;1756399;81;21279;-80
2023/02/05 06:20:16;;;;;;;36.38;18.45;;;;;;;0.62;87.14;100364.99;1758327;81;21145;-81
2023/02/05 06:23:23;;;;;;;34.13;18.52;;;;;;;0.76;86.44;100361.30;1757768;81;21231;-80
2023/02/05 06:26:28;;;;;;;32.53;18.80;;;;;;;0.78;85.70;100359.83;1757552;81;21804;-81
2023/02/05 06:29:35;;;;;;;38.30;20.37;;;;;;;0.79;85.65;100363.74;1758623;81;21149;-80
2023/02/05 06:32:40;;;;;;;42.00;21.77;;;;;;;0.99;85.15;100373.07;1749939;81;21160;-85
2023/02/05 06:35:46;;;;;;;40.98;21.40;;;;;;;1.02;85.02;100366.94;1722710;83;21169;-85
2023/02/05 06:38:52;;;;;;;41.88;21.68;;;;;;;0.95;85.14;100375.13;1721129;83;21216;-85
2023/02/05 06:41:58;;;;;;;37.60;20.25;;;;;;;0.95;85.50;100381.00;1720897;83;21200;-85
2023/02/05 06:45:18;;;;;;;35.48;20.43;;;;;;;1.02;85.63;100383.59;1721352;83;21220;-85
2023/02/05 06:48:23;;;;;;;36.77;19.87;;;;;;;1.06;85.42;100389.63;1674840;84;21253;-85
2023/02/05 06:51:29;;;;;;;33.60;18.37;;;;;;;1.11;85.32;100386.95;1685413;85;21812;-83
2023/02/05 06:54:34;;;;;;;33.30;17.02;;;;;;;1.17;85.21;100387.83;1685562;85;21197;-84
2023/02/05 06:57:40;;;;;;;34.65;17.55;;;;;;;1.17;85.04;100395.06;1685117;85;21225;-84
2023/02/05 07:00:40;;;;;;;32.58;17.80;;;;;;;1.35;83.84;100390.14;1665894;85;21300;-84
2023/02/05 07:03:34;;;;;;;28.20;16.27;;;;;;;1.38;83.55;100384.03;1658315;86;21301;-84
2023/02/05 07:06:38;;;;;;;32.75;16.70;;;;;;;1.53;82.76;100396.34;1658169;86;21200;-83
2023/02/05 07:09:45;;;;;;;31.65;16.82;;;;;;;1.46;82.42;100396.95;1658342;86;21221;-84
2023/02/05 07:12:51;;;;;;;30.20;15.98;;;;;;;1.59;82.31;100401.75;1657123;86;21233;-84
2023/02/05 07:15:57;;;;;;;28.20;16.32;;;;;;;1.52;82.54;100399.17;1658695;85;21257;-87
2023/02/05 07:19:05;;;;;;;26.60;15.00;;;;;;;1.68;82.35;100403.75;1683790;85;21268;-85
2023/02/05 07:22:05;;;;;;;26.68;13.70;;;;;;;1.88;80.98;100393.27;1685311;85;21189;-85
2023/02/05 07:25:14;;;;;;;25.48;12.60;;;;;;;1.87;80.22;100399.64;1685630;85;21229;-84
2023/02/05 07:28:20;;;;;;;23.20;11.95;;;;;;;1.93;79.74;100405.90;1685011;85;21221;-84
2023/02/05 07:31:26;;;;;;;21.70;11.85;;;;;;;1.97;78.62;100405.55;1685056;85;21815;-85
2023/02/05 07:34:33;;;;;;;19.48;10.75;;;;;;;2.13;78.01;100404.38;1686267;85;21264;-84
2023/02/05 07:37:40;;;;;;;19.80;11.43;;;;;;;2.26;77.56;100415.94;1686078;85;21209;-84
2023/02/05 07:40:46;;;;;;;19.25;9.88;;;;;;;2.30;76.81;100407.94;1686306;85;21319;-83
2023/02/05 07:43:51;;;;;;;18.32;10.50;;;;;;;2.29;76.38;100403.03;1686086;85;21256;-83
2023/02/05 07:46:58;;;;;;;17.85;10.08;;;;;;;2.48;74.99;100403.78;1684008;85;21816;-83
2023/02/05 07:50:05;;;;;;;14.78;9.10;;;;;;;2.42;74.52;100404.77;1669111;85;21212;-82
2023/02/05 07:53:12;;;;;;;15.00;9.58;;;;;;;2.18;75.03;100409.77;1652734;87;21291;-83
2023/02/05 07:56:22;;;;;;;16.70;9.60;;;;;;;2.20;74.51;100414.55;1652635;87;21339;-82
2023/02/05 07:59:29;;;;;;;14.85;9.48;;;;;;;2.24;73.99;100409.28;1651810;87;21904;-82
2023/02/05 08:02:34;;;;;;;15.72;9.40;;;;;;;2.79;72.58;100406.23;1652111;87;21251;-83
2023/02/05 08:05:40;;;;;;;19.00;9.50;;;;;;;2.65;72.17;100407.84;1652592;87;21338;-83
2023/02/05 08:08:47;;;;;;;16.20;10.03;;;;;;;2.48;71.33;100409.17;1652257;87;21204;-85
2023/02/05 08:11:54;;;;;;;17.55;9.48;;;;;;;3.22;70.50;100414.88;1652547;87;21259;-83
2023/02/05 08:15:00;;;;;;;14.58;8.98;;;;;;;1.90;73.36;100426.39;1652613;87;21751;-84
2023/02/05 08:18:06;;;;;;;16.10;9.20;;;;;;;2.93;69.65;100418.62;1651779;87;21212;-85
2023/02/05 08:21:11;;;;;;;17.77;9.80;;;;;;;3.37;69.30;100425.41;1652440;87;21235;-83
2023/02/05 08:24:18;;;;;;;15.55;8.53;;;;;;;3.63;66.75;100432.22;1652696;87;21295;-83
2023/02/05 08:27:25;;;;;;;15.43;8.00;;;;;;;4.19;65.78;100438.71;1651776;87;21195;-84
2023/02/05 08:30:32;;;;;;;12.23;7.72;;;;;;;4.40;64.05;100442.75;1651821;87;21779;-85
2023/02/05 08:33:39;;;;;;;12.20;7.70;;;;;;;4.32;62.81;100439.34;1652052;87;21897;-84
2023/02/05 08:36:45;;;;;;;10.80;7.60;;;;;;;4.60;62.07;100445.06;1651132;87;21775;-83
2023/02/05 08:39:51;;;;;;;11.40;7.85;;;;;;;4.96;61.00;100436.89;1651274;87;21251;-83
2023/02/05 08:42:59;;;;;;;12.65;8.68;;;;;;;4.71;60.50;100445.50;1652752;87;21204;-83
2023/02/05 08:46:07;;;;;;;13.48;8.10;;;;;;;4.67;59.89;100440.84;1652861;87;21276;-85
2023/02/05 08:49:12;;;;;;;14.65;8.30;;;;;;;4.52;60.11;100447.61;1652255;85;21263;-84
2023/02/05 08:52:18;;;;;;;11.53;7.90;;;;;;;4.45;61.12;100440.99;1652873;87;21314;-83
2023/02/05 08:55:23;;;;;;;13.00;8.80;;;;;;;4.47;60.25;100437.64;1653106;87;22041;-83
2023/02/05 08:58:29;;;;;;;12.63;8.55;;;;;;;5.04;59.57;100440.28;1652031;87;21750;-83
2023/02/05 09:01:39;;;;;;;12.85;8.28;;;;;;;4.71;60.15;100446.35;1651759;87;21215;-82
2023/02/05 09:04:45;;;;;;;14.68;9.10;;;;;;;3.75;60.25;100445.19;1653412;87;21322;-82
2023/02/05 09:07:52;;;;;;;10.60;7.03;;;;;;;3.41;63.15;100445.81;1653669;86;21220;-83
2023/02/05 09:10:58;;;;;;;11.22;7.60;;;;;;;3.02;64.00;100444.05;1652081;87;21236;-85
2023/02/05 09:14:05;;;;;;;10.60;7.25;;;;;;;2.89;65.31;100448.72;1652973;87;21192;-83
2023/02/05 09:17:16;;;;;;;9.93;7.08;;;;;;;2.99;66.12;100441.09;1652951;87;21529;-83
2023/02/05 09:20:24;;;;;;;13.38;8.00;;;;;;;2.71;66.89;100444.30;1651744;87;21259;-84
2023/02/05 09:23:32;;;;;;;11.20;7.22;;;;;;;2.72;67.62;100433.36;1652966;87;21794;-84
2023/02/05 09:26:41;;;;;;;11.22;7.35;;;;;;;2.80;67.95;100430.05;1652917;87;21220;-84
2023/02/05 09:29:47;;;;;;;11.97;7.45;;;;;;;2.72;67.81;100429.80;1634724;87;21878;-83
2023/02/05 09:32:54;;;;;;;13.70;9.33;;;;;;;2.60;67.91;100438.91;1652683;87;21283;-83
2023/02/05 09:36:00;;;;;;;14.33;10.32;;;;;;;2.66;67.62;100437.91;1653034;87;21255;-83
2023/02/05 09:39:07;;;;;;;19.60;11.50;;;;;;;2.35;69.58;100442.17;1652993;87;21243;-84
2023/02/05 09:42:44;;;;;;;20.85;13.83;;;;;;;2.24;70.15;100441.67;1651838;87;21314;-83
2023/02/05 09:46:17;;;;;;;26.97;17.27;;;;;;;2.17;71.31;100448.55;1652985;87;21993;-84
2023/02/05 09:49:49;;;;;;;26.17;17.67;;;;;;;2.19;73.03;100447.92;1651951;85;21230;-84
2023/02/05 09:52:56;;;;;;;28.67;19.10;;;;;;;2.07;74.24;100448.89;1651216;87;21235;-83
2023/02/05 09:55:57;;;;;;;28.60;18.17;;;;;;;1.93;75.51;100452.65;1650818;87;21432;-83
2023/02/05 09:58:57;;;;;;;23.57;15.20;;;;;;;1.94;75.67;100444.92;1652083;87;21258;-84
2023/02/05 10:01:58;;;;;;;21.27;14.38;;;;;;;2.26;75.34;100451.88;1652317;87;21191;-83
2023/02/05 10:05:00;;;;;;;21.35;12.63;;;;;;;2.29;75.39;100446.22;1627818;86;21242;-83
2023/02/05 10:08:08;;;;;;;19.32;11.83;;;;;;;2.35;74.43;100453.47;1650791;87;21261;-84
2023/02/05 10:11:03;;;;;;;15.23;9.28;;;;;;;2.49;73.71;100451.89;1651274;87;21495;-83
2023/02/05 10:14:21;;;;;;;21.57;12.25;;;;;;;2.51;72.89;100455.34;1651815;87;21345;-84
2023/02/05 10:18:07;;;;;;;17.02;10.08;;;;;;;2.56;72.29;100450.44;1651862;87;21243;-83
2023/02/05 10:21:46;;;;;;;12.80;9.35;;;;;;;2.68;71.35;100442.72;1650643;87;21298;-83
2023/02/05 10:25:31;;;;;;;16.77;11.18;;;;;;;2.90;71.45;100438.27;1651635;87;21546;-85
2023/02/05 10:29:04;;;;;;;12.35;8.58;;;;;;;2.91;71.21;100439.98;1652353;87;21223;-84
2023/02/05 10:32:27;;;;;;;13.80;9.20;;;;;;;3.19;69.74;100438.10;1652408;87;21215;-82
2023/02/05 10:35:58;;;;;;;14.33;9.15;;;;;;;3.11;68.52;100443.30;1651129;87;21390;-83
2023/02/05 10:39:06;;;;;;;15.08;10.45;;;;;;;3.06;68.85;100447.73;1652249;87;21338;-83
2023/02/05 10:42:35;;;;;;;14.40;9.28;;;;;;;3.05;67.93;100442.42;1651088;87;21781;-83
2023/02/05 10:45:40;;;;;;;14.50;10.20;;;;;;;3.15;67.11;100446.09;1618511;86;21239;-85
2023/02/05 10:49:03;;;;;;;19.45;11.33;;;;;;;3.23;66.14;100452.23;1651542;87;22758;-84
2023/02/05 10:52:09;;;;;;;14.35;9.33;;;;;;;3.32;66.27;100455.53;1652252;86;21287;-84
2023/02/05 10:55:19;;;;;;;13.15;9.10;;;;;;;3.25;65.60;100455.19;1653327;87;21208;-84
2023/02/05 10:59:07;;;;;;;15.20;9.90;;;;;;;3.27;65.39;100453.20;1653207;87;21236;-85
2023/02/05 11:02:16;;;;;;;13.53;9.63;;;;;;;2.86;67.18;100455.71;1652398;87;21231;-84
2023/02/05 11:05:41;;;;;;;14.13;9.40;;;;;;;2.99;67.48;100449.69;1652566;87;21358;-83
2023/02/05 11:08:50;;;;;;;11.55;9.00;;;;;;;3.06;66.95;100453.13;1653137;87;21216;-84
2023/02/05 11:12:02;;;;;;;22.23;12.50;;;;;;;3.14;67.10;100459.25;1652741;87;21216;-84
2023/02/05 11:15:09;;;;;;;14.60;9.40;;;;;;;3.16;65.63;100448.33;1647171;87;21326;-83
2023/02/05 11:18:22;;;;;;;14.07;8.58;;;;;;;2.94;66.72;100458.66;1653184;87;21248;-84
2023/02/05 11:21:28;;;;;;;21.02;11.22;;;;;;;2.89;66.35;100462.23;1637159;87;21802;-83
2023/02/05 11:24:42;;;;;;;12.75;8.05;;;;;;;3.39;64.37;100455.88;1652299;87;21229;-83
2023/02/05 11:28:06;;;;;;;12.68;7.28;;;;;;;2.96;65.06;100458.03;1624827;88;21887;-84
2023/02/05 11:31:39;;;;;;;17.35;8.50;;;;;;;2.78;66.69;100460.40;1625825;88;21233;-85
2023/02/05 11:34:46;;;;;;;16.75;8.18;;;;;;;2.63;68.44;100464.30;1605573;88;21498;-84
2023/02/05 11:37:56;;;;;;;14.55;9.98;;;;;;;2.76;68.86;100471.80;1626027;85;21296;-84
2023/02/05 11:41:10;;;;;;;18.62;11.38;;;;;;;2.73;68.61;100470.22;1644107;85;21265;-83
2023/02/05 11:44:27;;;;;;;21.20;11.48;;;;;;;2.60;69.14;100465.91;1657448;83;21357;-83
2023/02/05 11:47:43;;;;;;;24.80;13.62;;;;;;;2.52;69.53;100461.96;1675913;85;21277;-86
2023/02/05 11:50:50;;;;;;;23.75;14.00;;;;;;;2.39;69.93;100467.09;1675221;85;21217;-86
2023/02/05 11:54:05;;;;;;;27.52;14.75;;;;;;;2.46;70.54;100464.30;1678443;85;21245;-85
2023/02/05 11:57:29;;;;;;;31.95;18.27;;;;;;;2.23;71.49;100466.95;1679810;85;21265;-83
2023/02/05 12:00:38;;;;;;;28.23;16.00;;;;;;;2.20;72.31;100467.67;1681202;85;21281;-83
2023/02/05 12:03:44;;;;;;;28.85;15.18;;;;;;;2.16;72.30;100475.62;1681488;85;21217;-83
2023/02/05 12:07:00;;;;;;;25.82;14.03;;;;;;;2.15;72.08;100473.91;1681260;85;21218;-84
2023/02/05 12:10:07;;;;;;;23.38;13.90;;;;;;;2.08;71.51;100478.94;1680119;85;21229;-84
2023/02/05 12:13:48;;;;;;;27.02;14.68;;;;;;;2.13;70.81;100479.44;1651361;87;21521;-84
2023/02/05 12:17:08;;;;;;;31.43;17.90;;;;;;;2.29;69.98;100471.86;1652636;87;21143;-83
2023/02/05 12:20:39;;;;;;;38.53;20.62;;;;;;;2.22;69.20;100481.92;1652469;87;21223;-85
2023/02/05 12:24:32;;;;;;;77.72;40.60;;;;;;;2.08;69.09;100484.83;1652444;87;21838;-83
2023/02/05 12:28:12;;;;;;;42.23;22.05;;;;;;;2.16;68.48;100489.98;1624497;88;21246;-86
2023/02/05 12:32:09;;;;;;;35.90;20.17;;;;;;;2.33;67.52;100485.13;1626142;88;21250;-83
2023/02/05 12:36:08;;;;;;;41.18;21.87;;;;;;;2.24;67.72;100497.50;1624505;88;21848;-84
2023/02/05 12:39:38;;;;;;;27.07;13.63;;;;;;;2.23;67.46;100495.29;1549077;92;21241;-85
2023/02/05 12:42:50;;;;;;;30.27;17.12;;;;;;;2.46;66.46;100499.40;1682339;85;21252;-83
2023/02/05 12:46:13;;;;;;;30.82;17.25;;;;;;;2.78;64.88;100496.38;1683516;85;21217;-83
2023/02/05 12:49:57;;;;;;;28.77;12.95;;;;;;;2.87;64.40;100500.19;1682476;84;21375;-85
2023/02/05 12:53:43;;;;;;;27.80;12.20;;;;;;;2.73;63.68;100505.34;1682542;85;21552;-84
2023/02/05 12:57:16;;;;;;;23.05;12.10;;;;;;;2.75;63.07;100508.77;1652081;87;21242;-83
2023/02/05 13:00:31;;;;;;;20.88;12.63;;;;;;;2.88;62.28;100507.80;1660208;86;21230;-86
2023/02/05 13:03:53;;;;;;;26.97;13.88;;;;;;;2.69;63.06;100510.61;1658590;86;21288;-84
2023/02/05 13:07:07;;;;;;;23.10;13.35;;;;;;;2.51;62.94;100513.39;1660137;86;21219;-85
2023/02/05 13:10:15;;;;;;;23.87;12.60;;;;;;;2.77;62.00;100516.73;1660198;86;21821;-83
2023/02/05 13:13:27;;;;;;;27.62;13.78;;;;;;;2.94;61.95;100523.02;1658985;86;21325;-83
2023/02/05 13:16:37;;;;;;;47.08;25.75;;;;;;;2.94;62.17;100522.16;1660142;86;22419;-83
2023/02/05 13:19:57;;;;;;;30.48;17.73;;;;;;;2.90;62.65;100530.99;1660192;86;21230;-85
2023/02/05 13:29:55;;;;;;;29.10;18.35;;;;;;;2.19;66.08;100530.73;1660732;86;21357;-83
2023/02/05 13:33:06;;;;;;;27.27;17.55;;;;;;;1.58;68.41;100532.16;1660468;86;21266;-84
2023/02/05 13:36:49;;;;;;;24.43;15.53;;;;;;;1.89;67.88;100532.58;1659600;86;22027;-83
2023/02/05 13:40:27;;;;;;;26.55;17.20;;;;;;;2.36;68.06;100536.20;1661025;86;21852;-83
2023/02/05 13:43:40;;;;;;;30.17;15.45;;;;;;;2.26;68.99;100538.74;1659941;86;21234;-83
2023/02/05 13:47:18;;;;;;;20.05;13.53;;;;;;;1.78;71.19;100541.45;1660966;86;21214;-83
2023/02/05 13:50:52;;;;;;;20.50;12.40;;;;;;;0.95;73.69;100546.16;1659754;86;21222;-83
2023/02/05 13:54:21;;;;;;;22.55;14.95;;;;;;;0.78;75.43;100543.78;1660127;86;21562;-84
2023/02/05 13:57:35;;;;;;;25.70;14.43;;;;;;;0.67;75.53;100547.24;1662361;86;21349;-83
2023/02/05 14:00:42;;;;;;;119.00;47.50;;;;;;;0.71;75.40;100539.82;1660902;86;21882;-82
2023/02/05 14:03:51;;;;;;;51.42;32.40;;;;;;;0.72;75.29;100544.23;1661918;86;21215;-82
2023/02/05 14:07:15;;;;;;;21.02;13.10;;;;;;;0.68;75.16;100546.27;1662836;86;21259;-82
2023/02/05 14:10:42;;;;;;;22.45;15.63;;;;;;;0.74;75.10;100544.48;1661231;86;21279;-84
2023/02/05 14:13:49;;;;;;;13.65;9.35;;;;;;;0.81;74.97;100546.77;1661757;86;21793;-82
2023/02/05 14:16:48;;;;;;;18.67;11.00;;;;;;;0.74;74.26;100550.35;1661765;86;21227;-83
2023/02/05 14:19:59;;;;;;;10.95;8.18;;;;;;;0.75;74.04;100562.38;1663129;86;21196;-82
2023/02/05 14:22:46;;;;;;;12.18;8.68;;;;;;;1.42;71.19;100561.23;1663110;86;21283;-83
2023/02/05 14:25:50;;;;;;;13.13;9.35;;;;;;;1.52;69.96;100560.44;1662809;86;21196;-81
2023/02/05 14:28:56;;;;;;;15.88;10.90;;;;;;;1.62;69.49;100558.41;1662719;86;21235;-82
2023/02/05 14:31:56;;;;;;;96.67;59.03;;;;;;;1.00;71.02;100560.64;1661887;86;21264;-83
2023/02/05 14:35:38;;;;;;;47.25;29.77;;;;;;;1.14;71.44;100566.40;1661651;86;21203;-82
2023/02/05 14:38:44;;;;;;;27.73;17.55;;;;;;;0.99;71.96;100566.52;1662661;86;21198;-83
2023/02/05 14:41:59;;;;;;;20.80;14.10;;;;;;;0.79;73.19;100570.23;1662775;86;21132;-83
2023/02/05 14:45:06;;;;;;;18.70;14.33;;;;;;;0.69;74.28;100564.14;1661700;86;21579;-82
2023/02/05 14:48:11;;;;;;;24.45;17.45;;;;;;;1.17;73.56;100562.97;1640922;86;21247;-83
2023/02/05 14:51:48;;;;;;;24.40;16.60;;;;;;;1.23;73.13;100562.56;1662906;86;21199;-83
2023/02/05 14:54:59;;;;;;;23.38;14.40;;;;;;;1.11;73.77;100564.77;1661728;86;21220;-83
2023/02/05 14:58:11;;;;;;;27.02;17.48;;;;;;;1.05;74.16;100569.26;1652538;85;21294;-82